Time;durP1;ratioP1;P1;durP2;ratioP2;P2;SDS_P1;SDS_P2;PMS_P1;PMS_P2;Temp;Humidity;BMP_temperature;BMP_pressure;BME280_temperature;BME280_humidity;BME280_pressure;Samples;Min_cycle;Max_cycle;Signal;HPM_P1;HPM_P2
2023/11/11 00:02:03;;;;;;;3.70;1.80;;;3.80;99.90;;;;;;5054830;28;20041;-89
2023/11/11 00:04:29;;;;;;;5.93;2.20;;;3.80;99.90;;;;;;5056592;28;20174;-88
2023/11/11 00:06:55;;;;;;;5.57;2.23;;;3.70;99.90;;;;;;5056300;28;20491;-87
2023/11/11 00:09:20;;;;;;;6.27;2.10;;;3.70;99.90;;;;;;5058009;28;20033;-88
2023/11/11 00:11:46;;;;;;;3.93;1.83;;;3.70;99.90;;;;;;5058231;28;20039;-87
2023/11/11 00:14:15;;;;;;;3.90;1.73;;;3.70;99.90;;;;;;5057976;28;20570;-88
2023/11/11 00:16:41;;;;;;;4.50;1.80;;;3.70;99.90;;;;;;5056352;28;20352;-87
2023/11/11 00:19:06;;;;;;;4.40;2.00;;;3.60;99.90;;;;;;5057326;28;20017;-88
2023/11/11 00:21:37;;;;;;;3.07;1.60;;;3.60;99.90;;;;;;5059224;28;20025;-87
2023/11/11 00:24:07;;;;;;;4.90;1.60;;;3.60;99.90;;;;;;5066361;28;20114;-88
2023/11/11 00:26:33;;;;;;;2.90;1.73;;;3.60;99.90;;;;;;5070013;28;20089;-89
2023/11/11 00:28:58;;;;;;;2.00;1.50;;;3.60;99.90;;;;;;5073635;28;20028;-86
2023/11/11 00:31:24;;;;;;;2.80;1.70;;;3.70;99.90;;;;;;5061983;28;21417;-87
2023/11/11 00:33:51;;;;;;;2.73;1.50;;;3.70;99.90;;;;;;5060127;28;20047;-87
2023/11/11 00:36:18;;;;;;;3.27;1.60;;;3.70;99.90;;;;;;5062568;28;20033;-90
2023/11/11 00:38:44;;;;;;;3.03;1.60;;;3.70;99.90;;;;;;5068812;28;20082;-87
2023/11/11 00:41:11;;;;;;;3.60;1.50;;;3.70;99.90;;;;;;5056712;28;20492;-86
2023/11/11 00:43:37;;;;;;;3.63;1.27;;;3.70;99.90;;;;;;5055760;28;20467;-90
2023/11/11 00:46:02;;;;;;;4.60;1.50;;;3.70;99.90;;;;;;5055749;28;20088;-87
2023/11/11 00:48:28;;;;;;;2.23;1.50;;;3.70;99.90;;;;;;5054257;28;20031;-87
2023/11/11 00:50:53;;;;;;;2.60;1.43;;;3.80;99.90;;;;;;5056059;28;20471;-88
2023/11/11 00:53:19;;;;;;;2.73;1.47;;;3.80;99.90;;;;;;5054446;28;20024;-88
2023/11/11 00:55:46;;;;;;;2.43;1.40;;;3.80;99.90;;;;;;5055496;28;20057;-87
2023/11/11 00:58:11;;;;;;;3.13;1.33;;;3.80;99.90;;;;;;5054593;28;20016;-87
2023/11/11 01:00:42;;;;;;;3.30;1.53;;;3.90;99.90;;;;;;5055023;28;20082;-87
2023/11/11 01:03:08;;;;;;;2.63;1.50;;;3.90;99.90;;;;;;5056051;28;20039;-87
2023/11/11 01:05:34;;;;;;;3.13;1.43;;;4.00;99.90;;;;;;5054687;28;20426;-87
2023/11/11 01:08:00;;;;;;;4.13;1.60;;;4.00;99.90;;;;;;5052961;28;20491;-88
2023/11/11 01:10:27;;;;;;;2.53;1.40;;;4.00;99.90;;;;;;5056603;28;20031;-87
2023/11/11 01:12:53;;;;;;;2.70;1.43;;;4.10;99.90;;;;;;5055594;28;20496;-87
2023/11/11 01:15:20;;;;;;;5.50;1.80;;;4.10;99.90;;;;;;5055057;28;20407;-88
2023/11/11 01:17:45;;;;;;;1.13;1.00;;;4.20;99.90;;;;;;5056403;28;20033;-89
2023/11/11 01:20:12;;;;;;;1.67;1.07;;;4.20;99.90;;;;;;5055480;28;20036;-88
2023/11/11 01:22:38;;;;;;;4.07;2.10;;;4.30;99.90;;;;;;5055311;28;20415;-87
2023/11/11 01:25:04;;;;;;;3.63;1.10;;;4.40;99.90;;;;;;5053054;28;20021;-88
2023/11/11 01:27:31;;;;;;;1.93;1.00;;;4.50;99.90;;;;;;5055271;28;20035;-87
2023/11/11 01:29:58;;;;;;;2.73;1.40;;;4.60;99.90;;;;;;5055989;28;20074;-87
2023/11/11 01:32:24;;;;;;;2.50;1.03;;;4.70;99.90;;;;;;5056142;28;20029;-87
2023/11/11 01:34:49;;;;;;;1.70;1.00;;;4.80;99.90;;;;;;5054019;28;20036;-90
2023/11/11 01:37:15;;;;;;;1.37;0.90;;;4.80;99.90;;;;;;5054593;28;20036;-87
2023/11/11 01:39:41;;;;;;;0.93;0.80;;;5.00;99.90;;;;;;5055470;28;20025;-86
2023/11/11 01:42:07;;;;;;;1.77;1.00;;;5.10;99.90;;;;;;5055315;28;20189;-86
2023/11/11 01:44:33;;;;;;;2.13;1.13;;;5.30;99.90;;;;;;5053163;28;20032;-87
2023/11/11 01:46:59;;;;;;;2.27;1.07;;;5.30;99.90;;;;;;5054882;28;20028;-88
2023/11/11 01:49:25;;;;;;;1.80;1.03;;;5.40;99.90;;;;;;5053327;28;20032;-86
2023/11/11 01:51:52;;;;;;;2.10;1.30;;;5.40;99.90;;;;;;5055410;28;20021;-86
2023/11/11 01:54:18;;;;;;;2.03;1.10;;;5.40;99.90;;;;;;5054818;28;20024;-87
2023/11/11 01:56:44;;;;;;;1.27;0.90;;;5.50;99.90;;;;;;5055374;28;20036;-86
2023/11/11 01:59:11;;;;;;;2.60;1.00;;;5.40;99.90;;;;;;5057140;28;20024;-87
2023/11/11 02:01:37;;;;;;;1.50;0.90;;;5.40;99.90;;;;;;5058430;28;20068;-86
2023/11/11 02:04:02;;;;;;;1.07;0.80;;;5.30;99.90;;;;;;5060430;28;20112;-87
2023/11/11 02:06:29;;;;;;;1.70;0.70;;;5.30;99.90;;;;;;5060822;28;20024;-86
2023/11/11 02:08:55;;;;;;;1.00;0.90;;;5.30;99.90;;;;;;5063675;28;20092;-87
2023/11/11 02:11:21;;;;;;;1.00;0.80;;;5.30;99.90;;;;;;5064882;28;20886;-86
2023/11/11 02:13:47;;;;;;;1.70;0.80;;;5.30;99.90;;;;;;5059979;28;20629;-86
2023/11/11 02:16:14;;;;;;;1.90;0.63;;;5.20;99.90;;;;;;5060705;28;20037;-86
2023/11/11 02:18:40;;;;;;;1.40;0.80;;;5.20;99.90;;;;;;5059605;28;20017;-88
2023/11/11 02:21:06;;;;;;;3.33;1.03;;;5.10;99.90;;;;;;5059499;28;20094;-86
2023/11/11 02:23:35;;;;;;;2.10;0.73;;;5.10;99.90;;;;;;5059728;28;20108;-86
2023/11/11 02:26:02;;;;;;;1.50;0.90;;;5.10;99.90;;;;;;5059581;28;20060;-86
2023/11/11 02:28:28;;;;;;;2.33;1.03;;;5.10;99.90;;;;;;5059608;28;20155;-86
2023/11/11 02:30:54;;;;;;;1.80;0.90;;;5.00;99.90;;;;;;5057867;28;20103;-86
2023/11/11 02:33:19;;;;;;;2.53;0.87;;;5.00;99.90;;;;;;5057751;28;20457;-86
2023/11/11 02:35:46;;;;;;;1.00;0.70;;;4.90;99.90;;;;;;5057964;28;20469;-85
2023/11/11 02:38:12;;;;;;;1.07;0.60;;;4.90;99.90;;;;;;5059153;28;20029;-86
2023/11/11 02:40:39;;;;;;;1.33;0.97;;;4.90;99.90;;;;;;5060408;28;20576;-86
2023/11/11 02:43:05;;;;;;;1.97;0.77;;;4.90;99.90;;;;;;5059230;28;20981;-86
2023/11/11 02:45:31;;;;;;;1.23;0.63;;;4.90;99.90;;;;;;5058765;28;20017;-87
2023/11/11 02:47:57;;;;;;;2.30;0.83;;;4.90;99.90;;;;;;5059304;28;20112;-87
2023/11/11 02:50:23;;;;;;;1.00;0.80;;;4.90;99.90;;;;;;5060369;28;20039;-87
2023/11/11 02:52:49;;;;;;;1.07;0.77;;;4.90;99.90;;;;;;5059575;28;20032;-87
2023/11/11 02:55:15;;;;;;;0.93;0.77;;;4.90;99.90;;;;;;5059064;28;20029;-88
2023/11/11 02:57:42;;;;;;;1.70;0.90;;;4.90;99.90;;;;;;5058998;28;20113;-86
2023/11/11 03:00:10;;;;;;;2.23;0.70;;;4.90;99.90;;;;;;5059179;28;20446;-86
2023/11/11 03:02:37;;;;;;;0.50;0.50;;;4.90;99.90;;;;;;5059385;28;20070;-85
2023/11/11 03:05:03;;;;;;;0.93;0.70;;;4.90;99.90;;;;;;5058048;28;20025;-87
2023/11/11 03:07:28;;;;;;;5.27;0.60;;;5.00;99.90;;;;;;5059390;28;20111;-85
2023/11/11 03:09:55;;;;;;;1.20;0.50;;;5.10;99.90;;;;;;5062534;28;20107;-86
2023/11/11 03:12:21;;;;;;;1.33;0.60;;;5.10;99.90;;;;;;5059975;28;20025;-87
2023/11/11 03:14:46;;;;;;;0.90;0.80;;;5.10;99.90;;;;;;5062927;28;20043;-86
2023/11/11 03:17:12;;;;;;;2.30;0.73;;;5.20;99.90;;;;;;5065069;28;20102;-85
2023/11/11 03:19:37;;;;;;;1.20;0.87;;;5.20;99.90;;;;;;5070216;28;20025;-90
2023/11/11 03:22:03;;;;;;;0.80;0.60;;;5.20;99.90;;;;;;5082969;28;20058;-86
2023/11/11 03:24:29;;;;;;;2.03;0.60;;;5.30;99.90;;;;;;5084359;28;20036;-89
2023/11/11 03:26:55;;;;;;;0.97;0.60;;;5.30;99.90;;;;;;5084649;28;20029;-85
2023/11/11 03:29:20;;;;;;;1.30;0.80;;;5.30;99.90;;;;;;5063060;28;20024;-85
2023/11/11 03:31:46;;;;;;;0.77;0.60;;;5.30;99.90;;;;;;5060631;28;20081;-85
2023/11/11 03:34:11;;;;;;;1.30;0.70;;;5.30;99.90;;;;;;5059895;28;20064;-86
2023/11/11 03:36:37;;;;;;;2.00;0.70;;;5.30;99.90;;;;;;5058962;28;20036;-89
2023/11/11 03:39:02;;;;;;;0.77;0.57;;;5.30;99.90;;;;;;5060511;28;20037;-85
2023/11/11 03:41:28;;;;;;;1.10;0.77;;;5.30;99.90;;;;;;5058963;28;20506;-85
2023/11/11 03:43:54;;;;;;;0.60;0.60;;;5.20;99.90;;;;;;5060327;28;20021;-86
2023/11/11 03:46:19;;;;;;;0.97;0.60;;;5.20;99.90;;;;;;5060708;28;20025;-86
2023/11/11 03:48:45;;;;;;;0.97;0.70;;;5.20;99.90;;;;;;5061793;28;20074;-88
2023/11/11 03:51:11;;;;;;;0.60;0.60;;;5.20;99.90;;;;;;5061407;28;20123;-85
2023/11/11 03:53:36;;;;;;;0.70;0.70;;;5.20;99.90;;;;;;5062280;28;20086;-85
2023/11/11 03:56:03;;;;;;;0.50;0.50;;;5.20;99.90;;;;;;5063501;28;20050;-86
2023/11/11 03:58:30;;;;;;;0.77;0.60;;;5.10;99.90;;;;;;5066753;28;20640;-85
2023/11/11 04:00:55;;;;;;;0.77;0.77;;;5.10;99.90;;;;;;5065555;28;20116;-85
2023/11/11 04:03:21;;;;;;;0.70;0.70;;;5.10;99.90;;;;;;5060805;28;20111;-85
2023/11/11 04:05:46;;;;;;;1.63;0.67;;;5.10;99.90;;;;;;5058469;28;20585;-87
2023/11/11 04:08:13;;;;;;;0.90;0.80;;;5.20;99.90;;;;;;5061033;28;20208;-85
2023/11/11 04:10:39;;;;;;;0.83;0.70;;;5.10;99.90;;;;;;5059488;28;20019;-87
2023/11/11 04:13:05;;;;;;;0.60;0.60;;;5.10;99.90;;;;;;5061263;28;20020;-88
2023/11/11 04:15:31;;;;;;;0.60;0.60;;;5.00;99.90;;;;;;5058645;28;20033;-86
2023/11/11 04:17:57;;;;;;;0.70;0.60;;;5.00;99.90;;;;;;5060131;28;20024;-85
2023/11/11 04:20:23;;;;;;;0.60;0.60;;;5.10;99.90;;;;;;5060905;28;20032;-86
2023/11/11 04:22:48;;;;;;;2.00;0.80;;;5.10;99.90;;;;;;5061770;28;20036;-85
2023/11/11 04:25:14;;;;;;;0.57;0.57;;;5.20;99.90;;;;;;5059143;28;20025;-86
2023/11/11 04:27:44;;;;;;;0.47;0.47;;;5.20;99.90;;;;;;5060775;28;20479;-86
2023/11/11 04:30:10;;;;;;;1.13;0.60;;;5.20;99.90;;;;;;5059564;28;20035;-85
2023/11/11 04:32:36;;;;;;;0.73;0.57;;;5.20;99.90;;;;;;5058810;28;20020;-88
2023/11/11 04:35:03;;;;;;;1.50;0.60;;;5.10;99.90;;;;;;5058306;28;20029;-86
2023/11/11 04:37:30;;;;;;;0.70;0.70;;;5.10;99.90;;;;;;5058229;28;20032;-85
2023/11/11 04:39:57;;;;;;;0.90;0.67;;;5.10;99.90;;;;;;5060412;28;20017;-86
2023/11/11 04:42:24;;;;;;;1.20;0.60;;;5.10;99.90;;;;;;5057561;28;20020;-86
2023/11/11 04:44:51;;;;;;;1.20;0.57;;;5.10;99.90;;;;;;5059886;28;20035;-85
2023/11/11 04:47:18;;;;;;;1.87;0.77;;;5.20;99.90;;;;;;5061478;28;21354;-84
2023/11/11 04:49:44;;;;;;;2.17;0.60;;;5.20;99.90;;;;;;5061478;28;20032;-85
2023/11/11 04:52:10;;;;;;;1.03;0.70;;;5.20;99.90;;;;;;5059165;28;20029;-85
2023/11/11 04:54:36;;;;;;;1.30;0.60;;;5.30;99.90;;;;;;5058089;28;20407;-85
2023/11/11 04:57:02;;;;;;;1.00;0.60;;;5.30;99.90;;;;;;5059050;28;20230;-84
2023/11/11 04:59:28;;;;;;;0.63;0.60;;;5.40;99.90;;;;;;5058082;28;20141;-84
2023/11/11 05:01:54;;;;;;;1.67;0.73;;;5.30;99.90;;;;;;5059463;28;20029;-87
2023/11/11 05:04:23;;;;;;;2.17;0.63;;;5.40;99.90;;;;;;5058701;28;20676;-87
2023/11/11 05:06:49;;;;;;;0.90;0.60;;;5.40;99.90;;;;;;5057769;28;20040;-87
2023/11/11 05:09:16;;;;;;;1.73;0.90;;;5.50;99.90;;;;;;5059377;28;20036;-85
2023/11/11 05:11:45;;;;;;;0.53;0.53;;;5.60;99.90;;;;;;5058644;28;20487;-87
2023/11/11 05:14:13;;;;;;;0.50;0.50;;;5.60;99.90;;;;;;5057151;28;20033;-86
2023/11/11 05:16:43;;;;;;;1.13;0.63;;;5.70;99.90;;;;;;5059369;28;20039;-86
2023/11/11 05:19:10;;;;;;;1.57;0.50;;;5.70;99.90;;;;;;5055867;28;21376;-85
2023/11/11 05:21:36;;;;;;;0.77;0.70;;;5.80;99.90;;;;;;5058468;28;20020;-85
2023/11/11 05:24:02;;;;;;;0.70;0.60;;;5.80;99.90;;;;;;5057505;28;20548;-86
2023/11/11 05:26:28;;;;;;;2.60;0.73;;;5.90;99.90;;;;;;5058783;28;20103;-85
2023/11/11 05:28:55;;;;;;;0.70;0.70;;;5.90;99.90;;;;;;5057176;28;20043;-85
2023/11/11 05:31:22;;;;;;;1.13;0.70;;;5.90;99.90;;;;;;5059614;28;20137;-85
2023/11/11 05:33:48;;;;;;;0.90;0.70;;;5.80;99.90;;;;;;5056503;28;20483;-86
2023/11/11 05:36:13;;;;;;;1.77;0.80;;;5.90;99.90;;;;;;5057743;28;20063;-85
2023/11/11 05:38:39;;;;;;;1.13;0.80;;;5.90;99.90;;;;;;5060257;28;20033;-87
2023/11/11 05:41:05;;;;;;;1.27;0.90;;;5.90;99.90;;;;;;5060299;28;20037;-82
2023/11/11 05:43:30;;;;;;;1.47;1.07;;;5.90;99.90;;;;;;5061622;28;20056;-90
2023/11/11 05:45:56;;;;;;;1.47;0.97;;;5.90;99.90;;;;;;5060046;28;20024;-86
2023/11/11 05:48:22;;;;;;;1.17;1.00;;;5.80;99.90;;;;;;5060501;28;20031;-86
2023/11/11 05:50:47;;;;;;;1.33;1.10;;;5.90;99.90;;;;;;5061791;28;20025;-86
2023/11/11 05:53:14;;;;;;;2.43;1.30;;;5.80;99.90;;;;;;5062790;28;20391;-89
2023/11/11 05:55:39;;;;;;;1.37;1.10;;;5.80;99.90;;;;;;5066068;28;20064;-76
2023/11/11 05:58:05;;;;;;;2.30;1.47;;;5.90;99.90;;;;;;5060200;28;20103;-84
2023/11/11 06:00:31;;;;;;;2.03;1.20;;;5.80;99.90;;;;;;5060164;28;20056;-86
2023/11/11 06:02:56;;;;;;;2.53;1.63;;;5.80;99.90;;;;;;5060034;28;20103;-84
2023/11/11 06:05:22;;;;;;;2.90;1.40;;;5.80;99.90;;;;;;5060075;28;20035;-84
2023/11/11 06:07:48;;;;;;;4.20;1.60;;;5.70;99.90;;;;;;5061494;28;20048;-85
2023/11/11 06:10:14;;;;;;;2.57;1.50;;;5.60;99.90;;;;;;5064090;28;20055;-88
2023/11/11 06:12:39;;;;;;;1.83;1.50;;;5.60;99.90;;;;;;5063179;28;20159;-87
2023/11/11 06:15:08;;;;;;;1.83;1.30;;;5.60;99.90;;;;;;5066212;28;20040;-88
2023/11/11 06:17:33;;;;;;;1.87;1.40;;;5.50;99.90;;;;;;5074846;28;20040;-90
2023/11/11 06:19:59;;;;;;;2.47;1.70;;;5.50;99.90;;;;;;5088071;28;20028;-88
2023/11/11 06:22:25;;;;;;;2.67;1.57;;;5.50;99.90;;;;;;5090186;28;20028;-87
2023/11/11 06:24:51;;;;;;;3.77;2.10;;;5.50;99.90;;;;;;5077756;28;20029;-86
2023/11/11 06:27:16;;;;;;;2.43;1.67;;;5.60;99.90;;;;;;5070345;28;20173;-84
2023/11/11 06:29:42;;;;;;;1.40;1.30;;;5.60;99.90;;;;;;5065931;28;20120;-85
2023/11/11 06:32:07;;;;;;;3.07;1.60;;;5.60;99.90;;;;;;5064212;28;20051;-87
2023/11/11 06:34:33;;;;;;;3.37;1.57;;;5.60;99.90;;;;;;5063313;28;21034;-84
2023/11/11 06:36:58;;;;;;;4.00;1.57;;;5.50;99.90;;;;;;5064347;28;20043;-85
2023/11/11 06:39:24;;;;;;;2.83;1.47;;;5.60;99.90;;;;;;5064291;28;20103;-85
2023/11/11 06:41:50;;;;;;;2.30;1.43;;;5.50;99.90;;;;;;5063735;28;20050;-85
2023/11/11 06:44:15;;;;;;;1.90;1.33;;;5.60;99.90;;;;;;5064120;28;20041;-87
2023/11/11 06:46:42;;;;;;;2.97;1.47;;;5.60;99.90;;;;;;5063460;28;20040;-87
2023/11/11 06:49:07;;;;;;;2.27;1.20;;;5.70;99.90;;;;;;5063388;28;20032;-84
2023/11/11 06:51:34;;;;;;;1.60;1.30;;;5.70;99.90;;;;;;5063865;28;20108;-85
2023/11/11 06:54:00;;;;;;;2.67;1.40;;;5.80;99.90;;;;;;5063470;28;20039;-84
2023/11/11 06:56:26;;;;;;;3.57;1.43;;;5.80;99.90;;;;;;5063547;28;20037;-86
2023/11/11 06:58:52;;;;;;;2.30;1.40;;;5.80;99.90;;;;;;5065022;28;20154;-86
2023/11/11 07:01:22;;;;;;;1.37;1.00;;;5.80;99.90;;;;;;5063430;28;20028;-86
2023/11/11 07:03:49;;;;;;;3.33;1.30;;;5.90;99.90;;;;;;5063868;28;20410;-85
2023/11/11 07:06:22;;;;;;;1.97;1.20;;;6.00;99.90;;;;;;5061894;28;20518;-86
2023/11/11 07:08:51;;;;;;;4.13;1.40;;;6.00;99.90;;;;;;5061673;28;20037;-87
2023/11/11 07:11:18;;;;;;;2.40;1.20;;;6.00;99.90;;;;;;5064621;28;20040;-84
2023/11/11 07:13:46;;;;;;;2.50;1.47;;;6.00;99.90;;;;;;5062907;28;20148;-85
2023/11/11 07:16:19;;;;;;;3.23;1.30;;;6.00;99.90;;;;;;5064806;28;20035;-86
2023/11/11 07:18:45;;;;;;;1.80;1.63;;;6.00;99.90;;;;;;5066278;28;20101;-85
2023/11/11 07:21:21;;;;;;;2.43;1.50;;;6.10;99.90;;;;;;5069286;28;20053;-86
2023/11/11 07:23:48;;;;;;;1.43;1.23;;;6.10;99.90;;;;;;5062154;28;20016;-85
2023/11/11 07:26:15;;;;;;;2.00;1.37;;;6.10;99.90;;;;;;5062673;28;20040;-85
2023/11/11 07:28:43;;;;;;;2.60;1.30;;;6.00;99.90;;;;;;5061334;28;20487;-85
2023/11/11 07:31:08;;;;;;;4.43;1.40;;;6.10;99.90;;;;;;5061358;28;20037;-85
2023/11/11 07:33:34;;;;;;;3.67;1.37;;;6.10;99.90;;;;;;5058220;28;20040;-87
2023/11/11 07:36:00;;;;;;;1.70;1.40;;;6.20;99.90;;;;;;5059462;28;20032;-87
2023/11/11 07:38:26;;;;;;;3.20;1.60;;;6.20;99.90;;;;;;5058414;28;20115;-85
2023/11/11 07:40:51;;;;;;;2.73;1.30;;;6.20;99.90;;;;;;5059516;28;20079;-85
2023/11/11 07:43:17;;;;;;;2.40;1.63;;;6.20;99.90;;;;;;5058780;28;20058;-85
2023/11/11 07:45:42;;;;;;;3.50;2.13;;;6.30;99.90;;;;;;5061882;28;20025;-87
2023/11/11 07:48:08;;;;;;;2.80;1.30;;;6.40;99.90;;;;;;5060458;28;20036;-86
2023/11/11 07:50:35;;;;;;;3.00;1.33;;;6.40;99.90;;;;;;5059722;28;20044;-85
2023/11/11 07:53:00;;;;;;;2.03;1.20;;;6.30;99.90;;;;;;5059293;28;20016;-88
2023/11/11 07:55:26;;;;;;;2.10;1.30;;;6.40;99.90;;;;;;5059827;28;20506;-86
2023/11/11 07:57:51;;;;;;;2.10;1.23;;;6.50;99.90;;;;;;5058616;28;20132;-86
2023/11/11 08:00:19;;;;;;;2.77;1.10;;;6.60;99.90;;;;;;5059022;28;20112;-85
2023/11/11 08:02:47;;;;;;;1.87;1.27;;;6.60;99.90;;;;;;5059980;28;20062;-87
2023/11/11 08:05:13;;;;;;;2.90;1.50;;;6.70;99.90;;;;;;5060257;28;20123;-87
2023/11/11 08:07:38;;;;;;;3.73;1.30;;;6.80;99.90;;;;;;5060353;28;20475;-87
2023/11/11 08:10:06;;;;;;;5.73;1.60;;;6.80;99.90;;;;;;5060943;28;20116;-85
2023/11/11 08:12:31;;;;;;;2.10;1.30;;;6.90;99.90;;;;;;5060822;28;20386;-85
2023/11/11 08:15:00;;;;;;;2.60;1.40;;;6.90;99.90;;;;;;5058714;28;20066;-84
2023/11/11 08:17:25;;;;;;;2.33;1.10;;;7.00;99.90;;;;;;5057460;28;20111;-84
2023/11/11 08:19:53;;;;;;;2.87;1.50;;;7.10;99.90;;;;;;5057878;28;20184;-85
2023/11/11 08:22:19;;;;;;;2.93;1.83;;;7.20;99.90;;;;;;5055415;28;20065;-85
2023/11/11 08:24:44;;;;;;;3.53;1.50;;;7.20;99.90;;;;;;5058881;28;20096;-85
2023/11/11 08:27:11;;;;;;;3.23;1.40;;;7.30;99.90;;;;;;5055102;28;20032;-85
2023/11/11 08:29:36;;;;;;;2.20;1.33;;;7.30;99.90;;;;;;5053278;28;20036;-85
2023/11/11 08:32:02;;;;;;;3.57;1.87;;;7.20;99.90;;;;;;5055826;28;20024;-86
2023/11/11 08:34:31;;;;;;;3.23;1.20;;;7.20;99.90;;;;;;5053596;28;20027;-89
2023/11/11 08:36:57;;;;;;;2.03;1.30;;;7.30;99.90;;;;;;5051801;28;20048;-85
2023/11/11 08:39:24;;;;;;;2.00;1.00;;;7.30;99.90;;;;;;5053024;28;20070;-84
2023/11/11 08:41:50;;;;;;;2.80;1.00;;;7.30;99.90;;;;;;5053575;28;20025;-85
2023/11/11 08:44:15;;;;;;;2.50;1.37;;;7.40;99.90;;;;;;5055260;28;20039;-85
2023/11/11 08:46:41;;;;;;;3.43;1.33;;;7.40;99.90;;;;;;5053073;28;20029;-86
2023/11/11 08:49:07;;;;;;;3.33;1.00;;;7.30;99.90;;;;;;5053185;28;20032;-85
2023/11/11 08:51:32;;;;;;;2.17;1.20;;;7.40;99.90;;;;;;5053555;28;20215;-86
2023/11/11 08:54:00;;;;;;;2.07;1.17;;;7.40;99.90;;;;;;5053266;28;20017;-87
2023/11/11 08:56:28;;;;;;;2.77;1.10;;;7.50;99.90;;;;;;5053593;28;20127;-87
2023/11/11 08:58:57;;;;;;;2.97;1.30;;;7.50;99.90;;;;;;5054375;28;20085;-87
2023/11/11 09:01:23;;;;;;;2.60;1.17;;;7.60;99.90;;;;;;5051983;28;20044;-89
2023/11/11 09:03:49;;;;;;;5.63;1.17;;;7.60;99.90;;;;;;5053345;28;20035;-90
2023/11/11 09:06:16;;;;;;;2.10;1.20;;;7.60;99.90;;;;;;5052524;28;20934;-87
2023/11/11 09:08:43;;;;;;;3.23;1.40;;;7.70;99.90;;;;;;5054382;28;20513;-89
2023/11/11 09:11:11;;;;;;;2.03;1.43;;;7.70;99.90;;;;;;5058729;28;20033;-85
2023/11/11 09:13:36;;;;;;;7.60;1.57;;;7.70;99.90;;;;;;5060668;28;20048;-86
2023/11/11 09:16:02;;;;;;;2.00;1.20;;;7.80;99.90;;;;;;5070914;28;20108;-89
2023/11/11 09:18:29;;;;;;;3.50;1.30;;;7.80;99.90;;;;;;5086430;28;20013;-83
2023/11/11 09:20:55;;;;;;;2.17;1.30;;;7.80;99.90;;;;;;5078100;28;20081;-89
2023/11/11 09:23:21;;;;;;;2.43;1.10;;;7.70;99.90;;;;;;5066146;28;20494;-85
2023/11/11 09:25:46;;;;;;;2.70;1.30;;;7.70;99.90;;;;;;5056477;28;20033;-83
2023/11/11 09:28:12;;;;;;;2.33;1.20;;;7.60;99.90;;;;;;5056768;28;20093;-83
2023/11/11 09:30:38;;;;;;;3.60;1.40;;;7.60;99.90;;;;;;5056472;28;20033;-84
2023/11/11 09:33:05;;;;;;;2.07;1.50;;;7.60;99.90;;;;;;5054552;28;20032;-85
2023/11/11 09:35:30;;;;;;;2.20;1.37;;;7.60;99.90;;;;;;5051714;28;20515;-85
2023/11/11 09:37:56;;;;;;;2.37;1.23;;;7.60;99.90;;;;;;5051836;28;20029;-86
2023/11/11 09:40:22;;;;;;;2.87;1.37;;;7.60;99.90;;;;;;5053904;28;20044;-86
2023/11/11 09:42:48;;;;;;;1.90;1.40;;;7.70;99.90;;;;;;5053230;28;20025;-86
2023/11/11 09:45:14;;;;;;;2.47;1.20;;;7.80;99.90;;;;;;5052053;28;20631;-86
2023/11/11 09:47:42;;;;;;;3.30;1.70;;;8.10;99.90;;;;;;5052378;28;20052;-85
2023/11/11 09:50:10;;;;;;;2.83;1.53;;;8.20;99.90;;;;;;5051368;28;20060;-85
2023/11/11 09:52:38;;;;;;;1.80;1.13;;;8.20;99.90;;;;;;5048502;28;20474;-85
2023/11/11 09:55:05;;;;;;;2.30;1.20;;;8.20;99.90;;;;;;5051322;28;20056;-86
2023/11/11 09:57:33;;;;;;;1.70;1.33;;;8.30;99.90;;;;;;5049500;28;21139;-84
2023/11/11 09:59:59;;;;;;;6.03;1.60;;;8.50;99.90;;;;;;5052763;28;20032;-85
2023/11/11 10:02:26;;;;;;;1.77;1.00;;;8.50;99.90;;;;;;5057204;28;20036;-85
2023/11/11 10:04:52;;;;;;;3.27;1.60;;;8.60;99.90;;;;;;5056434;28;20273;-84
2023/11/11 10:07:19;;;;;;;2.27;1.50;;;8.60;99.90;;;;;;5059361;28;20088;-88
2023/11/11 10:09:46;;;;;;;3.87;1.53;;;8.70;99.90;;;;;;5052752;28;20675;-84
2023/11/11 10:12:12;;;;;;;2.53;1.30;;;8.70;99.90;;;;;;5052603;28;20487;-88
2023/11/11 10:14:40;;;;;;;3.77;1.50;;;8.60;99.90;;;;;;5051528;28;20035;-88
2023/11/11 10:17:08;;;;;;;2.03;1.23;;;8.50;99.90;;;;;;5051922;28;20035;-86
2023/11/11 10:19:33;;;;;;;2.90;1.40;;;8.40;99.90;;;;;;5054851;28;20773;-85
2023/11/11 10:21:59;;;;;;;3.00;1.53;;;8.40;99.90;;;;;;5056167;28;20028;-86
2023/11/11 10:24:25;;;;;;;4.00;1.70;;;8.40;99.90;;;;;;5060596;28;20051;-86
2023/11/11 10:26:52;;;;;;;2.97;1.47;;;8.40;99.90;;;;;;5055754;28;20164;-84
2023/11/11 10:29:17;;;;;;;2.70;1.50;;;8.40;99.90;;;;;;5053448;28;20025;-84
2023/11/11 10:31:47;;;;;;;1.73;1.47;;;8.30;99.90;;;;;;5056410;28;20020;-79
2023/11/11 10:34:13;;;;;;;2.07;1.33;;;8.20;99.90;;;;;;5057667;28;21090;-82
2023/11/11 10:36:43;;;;;;;3.93;1.80;;;8.20;99.90;;;;;;5061240;28;20025;-82
2023/11/11 10:39:12;;;;;;;2.53;1.47;;;8.10;99.90;;;;;;5061909;28;20052;-81
2023/11/11 10:41:39;;;;;;;1.97;1.40;;;8.10;99.90;;;;;;5062031;28;20042;-81
2023/11/11 10:44:06;;;;;;;2.43;1.50;;;8.00;99.90;;;;;;5057793;28;20526;-81
2023/11/11 10:46:36;;;;;;;1.70;1.33;;;8.00;99.90;;;;;;5057587;28;20033;-81
2023/11/11 10:49:04;;;;;;;3.17;1.63;;;7.90;99.90;;;;;;5056337;28;20051;-77
2023/11/11 10:51:30;;;;;;;13.40;2.50;;;7.70;99.90;;;;;;5054926;28;20029;-77
2023/11/11 10:53:59;;;;;;;2.57;1.37;;;7.70;99.90;;;;;;5054057;28;20106;-81
2023/11/11 10:56:26;;;;;;;2.60;1.57;;;7.60;99.90;;;;;;5056482;28;20208;-81
2023/11/11 10:58:54;;;;;;;5.23;1.90;;;7.50;99.90;;;;;;5053133;28;20411;-81
2023/11/11 11:01:21;;;;;;;1.93;1.13;;;7.40;99.90;;;;;;5054248;28;20039;-81
2023/11/11 11:03:48;;;;;;;4.00;1.47;;;7.30;99.90;;;;;;5054756;28;20047;-79
2023/11/11 11:06:18;;;;;;;3.60;1.50;;;7.20;99.90;;;;;;5053663;28;20024;-81
2023/11/11 11:08:56;;;;;;;2.80;1.63;;;7.20;99.90;;;;;;5053021;28;20476;-80
2023/11/11 11:11:38;;;;;;;4.57;1.70;;;7.20;99.90;;;;;;5053891;28;20028;-81
2023/11/11 11:14:10;;;;;;;2.17;1.50;;;7.20;99.90;;;;;;5052516;28;20119;-77
2023/11/11 11:16:38;;;;;;;3.67;1.50;;;7.20;99.90;;;;;;5049524;28;20033;-79
2023/11/11 11:19:07;;;;;;;3.30;1.80;;;7.20;99.90;;;;;;5052139;28;20126;-77
2023/11/11 11:21:34;;;;;;;3.47;1.70;;;7.20;99.90;;;;;;5051615;28;20139;-77
2023/11/11 11:24:08;;;;;;;2.37;1.53;;;7.30;99.90;;;;;;5034431;28;20036;-79
2023/11/11 11:26:34;;;;;;;3.57;1.80;;;7.50;99.90;;;;;;5052182;28;20044;-78
2023/11/11 11:29:12;;;;;;;3.77;1.57;;;7.70;99.90;;;;;;5049212;28;20021;-78
2023/11/11 11:32:02;;;;;;;4.37;1.70;;;7.90;99.90;;;;;;5049760;28;20037;-78
2023/11/11 11:34:28;;;;;;;1.37;1.10;;;7.90;99.90;;;;;;5051918;28;20036;-76
2023/11/11 11:36:56;;;;;;;3.13;1.63;;;7.90;99.90;;;;;;5046848;28;20056;-76
2023/11/11 11:39:27;;;;;;;2.70;1.60;;;7.80;99.90;;;;;;5051268;28;20032;-77
2023/11/11 11:42:18;;;;;;;3.87;1.43;;;7.80;99.90;;;;;;5050510;28;20067;-77
2023/11/11 11:44:55;;;;;;;3.40;1.90;;;7.80;99.90;;;;;;5049619;28;20458;-77
2023/11/11 11:47:23;;;;;;;2.60;1.77;;;7.80;99.90;;;;;;5055173;28;20033;-77
2023/11/11 11:49:49;;;;;;;3.13;1.60;;;7.90;99.90;;;;;;5053308;28;20079;-76
2023/11/11 11:52:16;;;;;;;3.13;1.60;;;7.80;99.90;;;;;;5052541;28;20070;-77
2023/11/11 11:54:42;;;;;;;2.57;1.40;;;7.90;99.90;;;;;;5050651;28;20558;-76
2023/11/11 11:57:09;;;;;;;2.60;1.80;;;7.90;99.90;;;;;;5049603;28;20046;-76
2023/11/11 11:59:36;;;;;;;3.67;1.80;;;8.00;99.90;;;;;;5049764;28;20045;-77
2023/11/11 12:02:01;;;;;;;3.37;1.67;;;8.10;99.90;;;;;;5051686;28;20037;-76
2023/11/11 12:04:28;;;;;;;2.83;1.70;;;8.20;99.90;;;;;;5051374;28;20063;-77
2023/11/11 12:06:54;;;;;;;2.77;1.60;;;8.20;99.90;;;;;;5050593;28;20520;-77
2023/11/11 12:09:20;;;;;;;2.40;1.50;;;8.10;99.90;;;;;;5050429;28;20037;-75
2023/11/11 12:11:45;;;;;;;6.77;1.90;;;8.00;99.90;;;;;;5051462;28;20084;-78
2023/11/11 12:14:13;;;;;;;3.80;1.80;;;7.90;99.90;;;;;;5050027;28;20036;-78
2023/11/11 12:16:50;;;;;;;3.93;1.90;;;7.70;99.90;;;;;;5060806;28;20201;-77
2023/11/11 12:19:18;;;;;;;4.37;1.87;;;7.40;99.90;;;;;;5063460;28;20016;-77
2023/11/11 12:21:45;;;;;;;5.47;2.13;;;7.00;99.90;;;;;;5057193;28;20074;-78
2023/11/11 12:24:13;;;;;;;4.73;2.10;;;6.80;99.90;;;;;;5050326;28;20028;-77
2023/11/11 12:26:41;;;;;;;3.57;1.87;;;6.70;99.90;;;;;;5053374;28;20038;-79
2023/11/11 12:29:07;;;;;;;3.40;2.13;;;6.60;99.90;;;;;;5050596;28;20059;-77
2023/11/11 12:31:41;;;;;;;6.77;2.10;;;6.70;99.90;;;;;;5046402;28;20546;-77
2023/11/11 12:34:08;;;;;;;4.20;2.10;;;6.70;99.90;;;;;;5044074;28;20025;-77
2023/11/11 12:36:34;;;;;;;3.87;2.00;;;6.80;99.90;;;;;;5043235;28;20586;-77
2023/11/11 12:39:09;;;;;;;5.13;2.10;;;6.90;99.90;;;;;;5044243;28;20100;-77
2023/11/11 12:41:38;;;;;;;3.23;1.60;;;7.10;99.90;;;;;;5042052;28;20040;-76
2023/11/11 12:44:07;;;;;;;4.83;1.57;;;7.40;99.90;;;;;;5043731;28;20124;-77
2023/11/11 12:46:41;;;;;;;3.70;1.70;;;7.60;99.90;;;;;;5042586;28;20033;-77
2023/11/11 12:49:11;;;;;;;4.17;1.30;;;7.60;99.90;;;;;;5043358;28;20032;-77
2023/11/11 12:51:38;;;;;;;2.60;1.30;;;7.70;99.90;;;;;;5043319;28;21289;-77
2023/11/11 12:54:04;;;;;;;2.77;1.40;;;7.70;99.90;;;;;;5044508;28;20143;-77
2023/11/11 12:56:33;;;;;;;2.67;1.40;;;7.70;99.90;;;;;;5044126;28;20052;-77